Time;durP1;ratioP1;P1;durP2;ratioP2;P2;SDS_P1;SDS_P2;PMS_P1;PMS_P2;Temp;Humidity;BMP_temperature;BMP_pressure;BME280_temperature;BME280_humidity;BME280_pressure;Samples;Min_cycle;Max_cycle;Signal;HPM_P1;HPM_P2
2022/11/30 00:00:24;;;;;;;2.90;1.10;;;6.20;99.90;;;6.07;68.24;95108.19;5079218;28;20466;-54
2022/11/30 00:02:52;;;;;;;1.70;1.50;;;6.20;99.90;;;6.01;68.33;95119.91;5080777;28;20454;-54
2022/11/30 00:05:21;;;;;;;2.50;1.83;;;6.20;99.90;;;5.97;68.49;95108.00;5083281;28;20472;-54
2022/11/30 00:07:48;;;;;;;2.20;1.50;;;6.10;99.90;;;5.96;68.11;95114.13;5081148;28;20552;-56
2022/11/30 00:10:16;;;;;;;1.40;1.20;;;6.10;99.90;;;5.95;68.68;95109.84;5083241;28;20834;-54
2022/11/30 00:12:43;;;;;;;1.40;0.93;;;6.10;99.90;;;5.96;68.78;95118.50;5081454;28;20450;-55
2022/11/30 00:15:12;;;;;;;1.70;1.60;;;6.10;99.90;;;5.97;68.75;95113.22;5085777;28;20554;-54
2022/11/30 00:17:40;;;;;;;1.53;1.43;;;6.10;99.90;;;6.00;68.62;95117.41;5075804;28;20435;-55
2022/11/30 00:20:08;;;;;;;1.53;1.30;;;6.10;99.90;;;6.03;69.23;95122.41;5081943;28;20511;-55
2022/11/30 00:22:37;;;;;;;2.60;1.50;;;6.20;99.90;;;6.04;69.66;95119.69;5081311;28;20453;-55
2022/11/30 00:25:04;;;;;;;1.60;1.40;;;6.20;99.90;;;6.06;68.54;95122.19;5081233;28;20470;-54
2022/11/30 00:27:32;;;;;;;1.13;1.03;;;6.20;99.90;;;6.03;69.13;95128.47;5082216;28;20504;-54
2022/11/30 00:29:59;;;;;;;1.77;1.50;;;6.20;99.90;;;6.01;69.04;95114.69;5081063;28;20473;-54
2022/11/30 00:32:27;;;;;;;2.17;1.10;;;6.20;99.90;;;6.00;69.15;95118.22;5081851;28;20462;-53
2022/11/30 00:34:54;;;;;;;1.63;1.53;;;6.10;99.90;;;5.98;68.85;95120.13;5079571;28;21068;-54
2022/11/30 00:37:21;;;;;;;2.67;1.53;;;6.10;99.90;;;5.97;68.79;95120.22;5083283;28;20450;-54
2022/11/30 00:39:50;;;;;;;1.40;1.30;;;6.10;99.90;;;5.96;69.19;95126.34;5079811;28;20540;-54
2022/11/30 00:42:17;;;;;;;4.00;1.77;;;6.10;99.90;;;5.96;69.25;95121.13;5082632;28;20449;-55
2022/11/30 00:44:44;;;;;;;3.47;2.27;;;6.10;99.90;;;5.94;69.23;95123.84;5081888;28;20462;-54
2022/11/30 00:47:12;;;;;;;1.20;1.03;;;6.10;99.90;;;5.93;69.39;95122.16;5082740;28;21080;-54
2022/11/30 00:49:39;;;;;;;1.70;1.60;;;6.10;99.90;;;5.93;69.02;95117.78;5078993;28;21036;-54
2022/11/30 00:52:06;;;;;;;2.33;1.30;;;6.10;99.90;;;5.93;69.33;95116.94;5083172;28;20446;-54
2022/11/30 00:54:33;;;;;;;1.80;1.47;;;6.10;99.90;;;5.91;69.32;95114.44;5078960;28;20497;-55
2022/11/30 00:57:02;;;;;;;1.67;1.57;;;6.10;99.90;;;5.91;69.83;95104.00;5079653;28;20499;-55
2022/11/30 00:59:29;;;;;;;2.43;1.73;;;6.00;99.90;;;5.87;69.15;95099.94;5078308;28;20466;-53
2022/11/30 01:01:56;;;;;;;2.33;1.77;;;6.00;99.90;;;5.88;69.49;95113.81;5077710;28;20450;-53
2022/11/30 01:04:24;;;;;;;1.43;1.33;;;6.00;99.90;;;5.86;69.72;95111.31;5081313;28;21043;-55
2022/11/30 01:06:51;;;;;;;1.60;1.50;;;6.00;99.90;;;5.87;69.71;95112.13;5082311;28;20453;-55
2022/11/30 01:09:18;;;;;;;0.97;0.87;;;6.00;99.90;;;5.89;69.78;95113.72;5077426;28;20470;-53
2022/11/30 01:11:45;;;;;;;2.80;1.53;;;6.00;99.90;;;5.92;70.31;95104.84;5083152;28;20450;-54
2022/11/30 01:14:14;;;;;;;1.47;1.37;;;6.00;99.90;;;5.93;70.38;95107.34;5082810;28;20470;-54
2022/11/30 01:16:41;;;;;;;2.83;1.57;;;6.10;99.90;;;5.93;70.10;95102.13;5071206;28;20822;-54
2022/11/30 01:19:09;;;;;;;1.30;1.17;;;6.10;99.90;;;5.95;69.98;95103.78;5077107;28;20573;-55
2022/11/30 01:21:36;;;;;;;1.47;1.37;;;6.10;99.90;;;5.95;69.67;95109.84;5070506;28;20462;-56
2022/11/30 01:24:03;;;;;;;2.27;1.50;;;6.10;99.90;;;5.94;70.05;95102.94;5078502;28;20474;-54
2022/11/30 01:26:30;;;;;;;2.43;1.10;;;6.10;99.90;;;5.94;70.28;95100.34;5071736;28;20451;-54
2022/11/30 01:28:58;;;;;;;1.40;1.30;;;6.10;99.90;;;5.93;69.82;95106.50;5077754;28;20474;-55
2022/11/30 01:31:26;;;;;;;1.07;0.97;;;6.10;99.90;;;5.92;70.57;95094.41;5078071;28;20457;-53
2022/11/30 01:33:55;;;;;;;1.10;1.00;;;6.10;99.90;;;5.90;69.68;95097.13;5081186;28;20469;-56
2022/11/30 01:36:24;;;;;;;1.93;1.20;;;6.00;99.90;;;5.89;69.91;95094.63;5077810;28;20490;-55
2022/11/30 01:38:53;;;;;;;1.63;1.37;;;6.00;99.90;;;5.92;69.58;95097.00;5082213;28;20557;-55
2022/11/30 01:41:22;;;;;;;1.20;1.10;;;6.00;99.90;;;5.89;70.02;95089.41;5078180;28;20516;-53
2022/11/30 01:43:51;;;;;;;1.50;1.40;;;6.00;99.90;;;5.87;70.32;95086.03;5082199;28;20489;-53
2022/11/30 01:46:35;;;;;;;1.90;1.07;;;6.00;99.90;;;5.87;70.17;95089.50;5079747;28;20455;-54
2022/11/30 01:49:12;;;;;;;1.10;0.93;;;6.00;99.90;;;5.87;70.05;95092.09;5078698;28;20476;-56
2022/11/30 01:51:41;;;;;;;1.40;1.07;;;6.00;99.90;;;5.89;69.69;95079.78;5079697;28;20441;-55
2022/11/30 01:54:09;;;;;;;2.50;1.77;;;6.00;99.90;;;5.88;69.71;95077.28;5079799;28;20477;-54
2022/11/30 01:56:37;;;;;;;2.50;0.90;;;6.00;99.90;;;5.89;69.92;95078.94;5077714;28;20490;-53
2022/11/30 01:59:04;;;;;;;1.13;1.03;;;6.00;99.90;;;5.86;70.16;95079.16;5077306;28;20470;-54
2022/11/30 02:01:32;;;;;;;1.10;1.00;;;6.00;99.90;;;5.84;70.00;95075.81;5080133;28;20454;-54
2022/11/30 02:04:04;;;;;;;1.23;1.10;;;6.00;99.90;;;5.81;69.63;95061.22;5079410;28;20546;-54
2022/11/30 02:06:31;;;;;;;2.30;0.70;;;6.00;99.90;;;5.79;70.42;95063.06;5081433;28;20461;-54
2022/11/30 02:08:58;;;;;;;1.20;1.00;;;5.90;99.90;;;5.76;69.54;95052.84;5078207;28;21002;-55
2022/11/30 02:11:26;;;;;;;5.13;1.10;;;5.90;99.90;;;5.71;70.49;95061.00;5081000;28;20461;-54
2022/11/30 02:14:05;;;;;;;1.30;0.80;;;5.90;99.90;;;5.69;70.17;95059.44;5081533;28;20457;-53
2022/11/30 02:16:38;;;;;;;1.83;1.10;;;5.80;99.90;;;5.63;70.67;95054.66;5074916;28;20862;-55
2022/11/30 02:19:27;;;;;;;1.20;0.90;;;5.80;99.90;;;5.58;70.44;95049.75;5079681;28;20467;-55
2022/11/30 02:21:58;;;;;;;1.10;1.00;;;5.80;99.90;;;5.52;70.31;95055.38;5071805;28;20443;-55
2022/11/30 02:24:40;;;;;;;0.93;0.80;;;5.70;99.90;;;5.49;71.14;95053.81;5080470;28;20997;-56
2022/11/30 02:27:26;;;;;;;3.07;1.03;;;5.70;99.90;;;5.47;71.41;95062.66;5077397;28;20819;-54
2022/11/30 02:29:56;;;;;;;1.20;1.00;;;5.60;99.90;;;5.45;70.69;95072.38;5073075;28;20496;-58
2022/11/30 02:32:28;;;;;;;4.63;0.90;;;5.60;99.90;;;5.41;71.30;95069.16;5080394;28;20453;-53
2022/11/30 02:34:55;;;;;;;1.53;0.80;;;5.60;99.90;;;5.40;71.33;95072.69;5078271;28;20459;-54
2022/11/30 02:37:22;;;;;;;1.63;0.73;;;5.60;99.90;;;5.37;71.42;95072.88;5080932;28;20547;-54
2022/11/30 02:39:49;;;;;;;1.00;0.90;;;5.50;99.90;;;5.34;71.65;95076.53;5078076;28;20478;-53
2022/11/30 02:42:17;;;;;;;1.10;1.00;;;5.50;99.90;;;5.34;71.43;95075.69;5080365;28;21028;-53
2022/11/30 02:44:47;;;;;;;0.97;0.77;;;5.50;99.90;;;5.32;71.60;95074.97;5080820;28;20458;-54
2022/11/30 02:47:22;;;;;;;1.10;1.00;;;5.50;99.90;;;5.32;72.17;95074.97;5079785;28;20837;-55
2022/11/30 02:49:54;;;;;;;1.20;1.10;;;5.50;99.90;;;5.34;72.13;95073.91;5077878;28;20471;-55
2022/11/30 02:52:24;;;;;;;1.00;0.90;;;5.50;99.90;;;5.36;72.06;95071.22;5077968;28;20860;-54
2022/11/30 02:54:51;;;;;;;3.00;0.80;;;5.50;99.90;;;5.36;72.24;95069.47;5078879;28;20532;-53
2022/11/30 02:57:18;;;;;;;1.43;1.33;;;5.50;99.90;;;5.38;72.35;95064.97;5076216;28;20496;-57
2022/11/30 02:59:46;;;;;;;1.43;1.27;;;5.50;99.90;;;5.42;72.51;95075.19;5078486;28;20466;-56
2022/11/30 03:02:13;;;;;;;1.60;0.97;;;5.50;99.90;;;5.45;72.31;95074.97;5081446;28;20471;-53
2022/11/30 03:04:42;;;;;;;1.10;0.90;;;5.60;99.90;;;5.48;72.21;95074.78;5077532;28;20470;-56
2022/11/30 03:07:09;;;;;;;1.80;1.27;;;5.60;99.90;;;5.50;72.51;95081.56;5079058;28;20499;-53
2022/11/30 03:09:36;;;;;;;1.70;1.27;;;5.60;99.90;;;5.53;72.30;95081.38;5079977;28;20476;-54
2022/11/30 03:12:04;;;;;;;2.73;1.10;;;5.70;99.90;;;5.55;71.99;95081.25;5078824;28;20535;-54
2022/11/30 03:14:31;;;;;;;1.33;1.10;;;5.70;99.90;;;5.56;72.13;95072.47;5083949;28;20481;-56
2022/11/30 03:16:58;;;;;;;1.23;1.13;;;5.70;99.90;;;5.57;71.79;95067.16;5073808;28;20490;-54
2022/11/30 03:19:25;;;;;;;1.67;1.57;;;5.70;99.90;;;5.57;71.60;95068.94;5078896;28;20895;-54
2022/11/30 03:21:54;;;;;;;2.30;1.70;;;5.70;99.90;;;5.54;71.76;95072.56;5077552;28;21198;-53
2022/11/30 03:24:21;;;;;;;1.73;1.60;;;5.70;99.90;;;5.52;71.71;95065.81;5079978;28;20481;-54
2022/11/30 03:26:49;;;;;;;2.27;2.07;;;5.70;99.90;;;5.54;72.95;95069.97;5077435;28;20463;-53
2022/11/30 03:29:16;;;;;;;8.17;4.17;;;5.70;99.90;;;5.56;72.26;95072.47;5079698;28;20485;-55
2022/11/30 03:31:43;;;;;;;12.13;6.13;;;5.70;99.90;;;5.57;71.97;95074.16;5076654;28;20458;-55
2022/11/30 03:34:10;;;;;;;34.33;10.63;;;5.70;99.90;;;5.59;72.38;95067.03;5083267;28;20466;-55
2022/11/30 03:36:38;;;;;;;23.40;9.43;;;5.70;99.90;;;5.61;72.17;95064.34;5080690;28;20485;-56
2022/11/30 03:39:06;;;;;;;21.73;7.20;;;5.70;99.90;;;5.62;72.46;95066.00;5083894;28;20535;-54
2022/11/30 03:41:33;;;;;;;15.63;4.83;;;5.80;99.90;;;5.63;72.83;95071.13;5080719;28;20529;-55
2022/11/30 03:44:01;;;;;;;4.67;3.20;;;5.80;99.90;;;5.62;72.14;95077.28;5083405;28;20474;-54
2022/11/30 03:46:28;;;;;;;4.27;3.83;;;5.70;99.90;;;5.61;72.51;95086.06;5084221;28;20910;-55
2022/11/30 03:48:55;;;;;;;11.57;6.47;;;5.80;99.90;;;5.60;72.61;95084.38;5084157;28;21009;-56
2022/11/30 03:51:23;;;;;;;17.30;6.30;;;5.70;99.90;;;5.59;72.71;95077.47;5080300;28;20480;-53
2022/11/30 03:53:50;;;;;;;10.60;6.60;;;5.70;99.90;;;5.59;72.64;95080.09;5083709;28;20546;-55
2022/11/30 03:56:19;;;;;;;7.93;6.50;;;5.70;99.90;;;5.59;73.79;95072.25;5079886;28;20478;-55
2022/11/30 03:58:46;;;;;;;7.57;6.10;;;5.70;99.90;;;5.61;73.70;95075.63;5080672;28;20457;-55
2022/11/30 04:01:15;;;;;;;5.90;5.03;;;5.70;99.90;;;5.64;73.31;95085.00;5080979;28;20930;-54
2022/11/30 04:03:42;;;;;;;5.90;5.40;;;5.80;99.90;;;5.66;73.79;95077.91;5083982;28;20446;-57
2022/11/30 04:06:11;;;;;;;5.67;5.17;;;5.80;99.90;;;5.68;73.71;95071.63;5081027;28;20798;-55
2022/11/30 04:08:39;;;;;;;5.13;4.67;;;5.80;99.90;;;5.71;74.23;95075.81;5082523;28;20794;-54
2022/11/30 04:11:06;;;;;;;4.17;3.87;;;5.90;99.90;;;5.71;73.83;95071.44;5081599;28;20457;-54
2022/11/30 04:13:36;;;;;;;4.17;3.87;;;5.90;99.90;;;5.73;73.97;95080.00;5082836;28;20450;-52
2022/11/30 04:16:04;;;;;;;5.27;3.70;;;5.90;99.90;;;5.75;73.45;95083.34;5079145;28;20993;-55
2022/11/30 04:18:32;;;;;;;3.47;3.17;;;5.90;99.90;;;5.78;73.99;95081.44;5080048;28;20446;-54
2022/11/30 04:20:59;;;;;;;3.07;2.80;;;5.90;99.90;;;5.73;73.38;95079.16;5081619;28;20457;-54
2022/11/30 04:23:29;;;;;;;4.97;3.60;;;5.90;99.90;;;5.75;73.61;95091.16;5081750;28;20454;-56
2022/11/30 04:25:57;;;;;;;7.60;5.87;;;5.90;99.90;;;5.74;73.71;95091.28;5078286;28;20515;-53
2022/11/30 04:28:24;;;;;;;3.50;3.30;;;5.90;99.90;;;5.74;73.66;95094.72;5082902;28;20778;-54
2022/11/30 04:30:53;;;;;;;5.70;3.53;;;5.90;99.90;;;5.75;74.01;95103.38;5079788;28;21039;-54
2022/11/30 04:33:20;;;;;;;3.47;3.20;;;5.90;99.90;;;5.77;74.04;95098.88;5087598;28;20803;-54
2022/11/30 04:35:50;;;;;;;4.40;4.00;;;5.90;99.90;;;5.80;73.84;95100.47;5082113;28;20531;-53
2022/11/30 04:38:17;;;;;;;3.73;3.43;;;5.90;99.90;;;5.81;74.10;95092.53;5075660;28;20942;-56
2022/11/30 04:40:45;;;;;;;9.37;4.00;;;5.90;99.90;;;5.81;73.76;95096.91;5082389;28;20943;-54
2022/11/30 04:43:12;;;;;;;3.90;3.60;;;5.90;99.90;;;5.82;73.97;95090.75;5077995;28;20470;-55
2022/11/30 04:45:40;;;;;;;3.30;3.10;;;5.90;99.90;;;5.79;73.73;95086.56;5074573;28;20540;-55
2022/11/30 04:48:08;;;;;;;4.07;3.77;;;6.00;99.90;;;5.77;74.02;95085.84;5082171;28;20991;-55
2022/11/30 04:50:36;;;;;;;5.83;4.53;;;5.90;99.90;;;5.76;73.52;95089.38;5079155;28;20827;-54
2022/11/30 04:53:03;;;;;;;6.03;4.83;;;5.90;99.90;;;5.75;74.36;95099.00;5082236;28;20449;-55
2022/11/30 04:55:30;;;;;;;7.23;5.63;;;5.90;99.90;;;5.77;74.70;95098.06;5080740;28;20485;-54
2022/11/30 04:57:57;;;;;;;7.30;6.07;;;5.90;99.90;;;5.80;74.49;95095.25;5078873;28;20486;-56
2022/11/30 05:00:25;;;;;;;6.70;6.00;;;5.90;99.90;;;5.81;74.26;95107.34;5076912;28;20483;-56
2022/11/30 05:02:52;;;;;;;8.90;6.20;;;5.90;99.90;;;5.85;74.25;95103.59;5081604;28;20446;-56
2022/11/30 05:05:21;;;;;;;5.30;4.77;;;6.00;99.90;;;5.87;74.54;95099.94;5083113;28;21043;-57
2022/11/30 05:07:50;;;;;;;5.37;4.80;;;6.00;99.90;;;5.91;74.86;95101.38;5081093;28;21038;-54
2022/11/30 05:10:17;;;;;;;5.83;5.00;;;6.00;99.90;;;5.95;74.32;95093.34;5082284;28;20565;-55
2022/11/30 05:12:45;;;;;;;8.17;4.90;;;6.00;99.90;;;5.95;73.48;95091.59;5080432;28;20470;-54
2022/11/30 05:15:12;;;;;;;15.97;4.73;;;6.10;99.90;;;5.93;74.20;95101.28;5078409;28;20461;-56
2022/11/30 05:17:39;;;;;;;6.53;4.70;;;6.10;99.90;;;5.92;74.16;95094.41;5077822;28;20556;-54
2022/11/30 05:20:08;;;;;;;8.87;6.53;;;6.00;99.90;;;5.87;73.69;95093.88;5084222;28;20523;-56
2022/11/30 05:22:37;;;;;;;12.07;4.60;;;6.00;99.90;;;5.89;73.71;95108.50;5078182;28;20451;-55
2022/11/30 05:25:04;;;;;;;5.20;3.77;;;6.00;99.90;;;5.91;74.01;95118.81;5080679;28;20485;-55
2022/11/30 05:27:32;;;;;;;4.03;3.73;;;6.00;99.90;;;5.90;73.83;95111.94;5076577;28;20512;-55
2022/11/30 05:29:59;;;;;;;4.30;3.90;;;6.00;99.90;;;5.90;73.77;95117.16;5080260;28;20561;-56
2022/11/30 05:32:26;;;;;;;3.37;3.10;;;6.00;99.90;;;5.87;73.92;95113.00;5076863;28;20504;-55
2022/11/30 05:34:53;;;;;;;8.57;3.27;;;6.00;99.90;;;5.87;73.73;95114.75;5081359;28;20519;-56
2022/11/30 05:37:21;;;;;;;3.10;2.90;;;6.00;99.90;;;5.85;74.28;95109.63;5077920;28;20497;-55
2022/11/30 05:39:49;;;;;;;4.33;4.03;;;6.00;99.90;;;5.86;73.77;95110.47;5080266;28;21020;-54
2022/11/30 05:42:17;;;;;;;6.20;3.77;;;6.00;99.90;;;5.83;73.36;95114.13;5074754;28;20454;-56
2022/11/30 05:44:44;;;;;;;8.60;3.47;;;6.00;99.90;;;5.83;74.16;95114.13;5081840;28;20519;-55
2022/11/30 05:47:12;;;;;;;4.80;3.50;;;6.00;99.90;;;5.83;74.26;95121.97;5076620;28;20564;-54
2022/11/30 05:49:39;;;;;;;5.37;3.67;;;6.00;99.90;;;5.82;73.95;95124.69;5079965;28;20506;-55
2022/11/30 05:52:06;;;;;;;4.90;4.10;;;5.90;99.90;;;5.83;73.35;95118.53;5077089;28;20542;-55
2022/11/30 05:54:34;;;;;;;4.30;3.23;;;5.90;99.90;;;5.84;73.98;95123.63;5072815;28;20874;-55
2022/11/30 05:57:04;;;;;;;5.60;4.40;;;5.90;99.90;;;5.85;73.93;95127.06;5073839;28;20898;-55
2022/11/30 05:59:31;;;;;;;5.93;4.50;;;6.00;99.90;;;5.86;73.84;95132.19;5075728;28;20478;-55
2022/11/30 06:01:58;;;;;;;6.27;4.63;;;6.00;99.90;;;5.85;73.55;95134.91;5073332;28;20775;-54
2022/11/30 06:04:26;;;;;;;5.63;5.13;;;6.00;99.90;;;5.85;73.65;95135.72;5076862;28;20470;-55
2022/11/30 06:06:54;;;;;;;5.57;4.63;;;6.00;99.90;;;5.86;73.86;95140.03;5070586;28;20516;-55
2022/11/30 06:09:22;;;;;;;11.67;5.17;;;5.90;99.90;;;5.87;73.33;95141.72;5076799;28;20470;-54
2022/11/30 06:11:49;;;;;;;6.07;5.47;;;6.00;99.90;;;5.89;73.35;95139.00;5070373;28;20955;-56
2022/11/30 06:14:18;;;;;;;9.07;4.93;;;6.00;99.90;;;5.90;74.48;95143.25;5080149;28;20467;-54
2022/11/30 06:16:45;;;;;;;8.37;5.87;;;6.00;99.90;;;5.91;73.82;95139.72;5070154;28;20655;-56
2022/11/30 06:19:12;;;;;;;6.33;5.73;;;6.00;99.90;;;5.93;73.97;95145.66;5076519;28;20492;-52
2022/11/30 06:21:39;;;;;;;13.00;6.30;;;6.00;99.90;;;5.94;74.09;95152.56;5073630;28;20455;-54
2022/11/30 06:24:08;;;;;;;8.10;4.90;;;6.10;99.90;;;5.96;73.80;95153.28;5072416;28;20992;-57
2022/11/30 06:26:36;;;;;;;3.67;3.20;;;6.10;99.90;;;5.96;72.41;95144.63;5071241;28;20636;-56
2022/11/30 06:29:03;;;;;;;8.10;3.70;;;6.10;99.90;;;5.91;72.91;95150.16;5076539;28;21015;-55
2022/11/30 06:31:32;;;;;;;3.47;3.17;;;6.00;99.90;;;5.88;72.78;95140.75;5069511;28;20516;-54
2022/11/30 06:33:59;;;;;;;2.43;2.23;;;6.00;99.90;;;5.85;71.80;95140.13;5076933;28;20548;-53
2022/11/30 06:36:27;;;;;;;1.70;1.60;;;6.00;99.90;;;5.85;70.86;95147.97;5070100;28;20509;-55
2022/11/30 06:38:55;;;;;;;1.37;1.27;;;6.00;99.90;;;5.78;70.02;95150.16;5076939;28;20500;-55
2022/11/30 06:41:22;;;;;;;1.90;1.73;;;5.90;99.90;;;5.74;70.64;95159.94;5073852;28;20515;-56
2022/11/30 06:43:49;;;;;;;7.67;1.90;;;5.90;99.90;;;5.73;71.10;95150.47;5079450;28;20553;-55
2022/11/30 06:46:17;;;;;;;2.93;1.60;;;5.90;99.90;;;5.75;70.31;95160.81;5078235;28;20454;-56
2022/11/30 06:48:48;;;;;;;5.73;2.40;;;5.90;99.90;;;5.74;70.60;95165.16;5080151;28;20446;-53
2022/11/30 06:51:15;;;;;;;3.53;3.13;;;5.90;99.90;;;5.78;71.21;95159.75;5078075;28;20717;-54
2022/11/30 06:53:43;;;;;;;4.03;2.60;;;5.90;99.90;;;5.81;71.48;95151.72;5078783;28;20446;-54
2022/11/30 06:56:10;;;;;;;2.10;1.90;;;5.90;99.90;;;5.85;71.57;95156.63;5080737;28;20446;-54
2022/11/30 06:58:37;;;;;;;6.37;4.50;;;6.00;99.90;;;5.90;72.16;95148.47;5074432;28;20500;-55
2022/11/30 07:01:05;;;;;;;6.27;4.80;;;6.00;99.90;;;5.94;72.29;95144.72;5079354;28;20454;-54
2022/11/30 07:03:32;;;;;;;8.83;5.63;;;6.00;99.90;;;6.00;71.31;95144.34;5079429;28;20885;-56
2022/11/30 07:06:01;;;;;;;6.80;4.87;;;6.10;99.90;;;6.03;72.37;95149.34;5077847;28;20446;-56
2022/11/30 07:08:28;;;;;;;7.53;6.00;;;6.10;99.90;;;6.08;72.18;95147.25;5082432;28;20449;-55
2022/11/30 07:10:55;;;;;;;9.70;5.23;;;6.10;99.90;;;6.10;72.25;95161.06;5082647;28;20450;-56
2022/11/30 07:13:23;;;;;;;6.17;5.20;;;6.20;99.90;;;6.12;71.76;95158.34;5079348;28;21054;-57
2022/11/30 07:15:50;;;;;;;7.17;5.60;;;6.20;99.90;;;6.18;71.76;95157.06;5084292;28;20470;-55
2022/11/30 07:18:17;;;;;;;9.30;5.93;;;6.30;99.90;;;6.22;71.82;95158.53;5082689;28;20527;-55
2022/11/30 07:20:44;;;;;;;8.70;6.03;;;6.30;99.90;;;6.26;71.72;95160.81;5083251;28;20462;-56
2022/11/30 07:26:12;;;;;;;5.93;4.77;;;6.40;99.90;;;6.28;70.96;95160.72;5045676;28;20477;-54
2022/11/30 07:28:41;;;;;;;6.57;4.07;;;6.40;99.90;;;6.25;70.40;95161.75;5045836;28;20467;-60
2022/11/30 07:31:16;;;;;;;5.77;4.30;;;6.40;99.90;;;6.25;70.06;95163.53;5063360;28;20453;-55
2022/11/30 07:33:43;;;;;;;5.50;4.50;;;6.30;99.90;;;6.25;70.24;95163.53;5081433;28;20449;-56
2022/11/30 07:36:11;;;;;;;4.73;4.17;;;6.40;99.90;;;6.26;70.08;95160.00;5081022;28;20955;-54
2022/11/30 07:38:40;;;;;;;5.13;4.13;;;6.40;99.90;;;6.30;69.44;95160.59;5083060;28;20558;-53
2022/11/30 07:41:07;;;;;;;9.33;4.20;;;6.40;99.90;;;6.29;70.01;95165.00;5078646;28;21064;-54
2022/11/30 07:43:34;;;;;;;5.20;4.40;;;6.40;99.90;;;6.31;69.63;95160.50;5081389;28;20976;-54
2022/11/30 07:46:01;;;;;;;10.50;4.00;;;6.40;99.90;;;6.31;69.58;95150.06;5083042;28;20832;-56
2022/11/30 07:48:29;;;;;;;6.53;3.83;;;6.40;99.90;;;6.31;69.77;95152.66;5085551;28;20453;-55
2022/11/30 07:51:03;;;;;;;10.30;5.90;;;6.40;99.90;;;6.33;68.44;95155.16;5080798;28;20459;-55
2022/11/30 07:53:31;;;;;;;25.93;6.10;;;6.40;99.90;;;6.31;69.20;95152.66;5083732;28;20450;-54
2022/11/30 07:56:04;;;;;;;7.20;4.37;;;6.40;99.90;;;6.30;69.49;95150.97;5079550;28;20524;-54
2022/11/30 07:58:31;;;;;;;8.07;3.57;;;6.40;99.90;;;6.32;69.51;95156.97;5077880;28;20827;-55
2022/11/30 08:01:03;;;;;;;2.00;1.80;;;6.40;99.90;;;6.31;68.69;95159.69;5080159;28;20549;-55
2022/11/30 08:03:30;;;;;;;3.27;1.83;;;6.40;99.90;;;6.29;68.05;95157.16;5082645;28;20855;-54
2022/11/30 08:06:02;;;;;;;4.70;2.33;;;6.40;99.90;;;6.28;68.89;95164.16;5077729;28;20922;-55
2022/11/30 08:08:31;;;;;;;4.03;2.27;;;6.40;99.90;;;6.27;68.93;95157.28;5080146;28;20458;-56
2022/11/30 08:10:59;;;;;;;1.87;1.70;;;6.40;99.90;;;6.31;69.06;95157.88;5081137;28;20958;-55
2022/11/30 08:13:27;;;;;;;7.73;3.80;;;6.40;99.90;;;6.36;69.49;95161.00;5078904;28;20451;-55
2022/11/30 08:15:55;;;;;;;14.27;5.83;;;6.40;99.90;;;6.43;69.69;95167.47;5081841;28;20462;-56
2022/11/30 08:18:22;;;;;;;13.47;5.97;;;6.50;99.90;;;6.45;69.56;95165.59;5081186;28;20997;-56
2022/11/30 08:20:56;;;;;;;16.17;6.43;;;6.50;99.90;;;6.46;69.76;95162.03;5079225;28;20466;-55
2022/11/30 08:23:24;;;;;;;9.83;6.40;;;6.60;99.90;;;6.48;69.76;95167.16;5081030;28;20445;-55
2022/11/30 08:25:51;;;;;;;22.13;7.07;;;6.60;99.90;;;6.51;69.69;95163.50;5082397;28;20469;-53
2022/11/30 08:28:18;;;;;;;23.57;6.40;;;6.60;99.90;;;6.52;69.47;95166.03;5080612;28;20510;-55
2022/11/30 08:30:47;;;;;;;9.50;5.57;;;6.60;99.90;;;6.55;69.87;95159.72;5082123;28;20478;-56
2022/11/30 08:33:14;;;;;;;10.03;6.23;;;6.60;99.90;;;6.56;69.49;95158.78;5077751;28;20684;-54
2022/11/30 08:35:41;;;;;;;17.00;6.20;;;6.60;99.90;;;6.57;69.72;95161.28;5082318;28;20474;-54
2022/11/30 08:38:09;;;;;;;10.10;5.30;;;6.70;99.90;;;6.58;70.96;95162.13;5079099;28;20496;-54
2022/11/30 08:40:36;;;;;;;6.70;5.20;;;6.70;99.90;;;6.62;70.94;95171.41;5076327;28;21278;-55
2022/11/30 08:43:03;;;;;;;9.80;5.30;;;6.70;99.90;;;6.70;70.73;95163.88;5079642;28;20446;-54
2022/11/30 08:45:30;;;;;;;7.00;5.33;;;6.80;99.90;;;6.76;70.25;95160.81;5086037;28;20954;-56
2022/11/30 08:47:59;;;;;;;8.53;6.10;;;6.80;99.90;;;6.80;70.07;95161.41;5079838;28;20454;-55
2022/11/30 08:50:26;;;;;;;7.67;6.07;;;6.90;99.90;;;6.79;69.86;95155.38;5081805;28;20531;-55
2022/11/30 08:52:55;;;;;;;8.37;6.17;;;6.90;99.90;;;6.80;69.55;95159.66;5078537;28;20511;-53
2022/11/30 08:55:22;;;;;;;7.03;6.13;;;6.90;99.90;;;6.80;69.46;95159.66;5081920;28;20556;-55
2022/11/30 08:57:49;;;;;;;6.53;5.10;;;6.90;99.90;;;6.82;69.32;95157.75;5075658;28;20490;-54
2022/11/30 09:00:18;;;;;;;14.17;7.43;;;6.90;99.90;;;6.82;69.84;95154.31;5082461;28;20851;-55
2022/11/30 09:02:46;;;;;;;11.00;6.80;;;6.90;99.90;;;6.85;70.10;95155.88;5077959;28;20454;-53
2022/11/30 09:05:15;;;;;;;13.80;7.57;;;7.00;99.90;;;6.89;69.43;95162.56;5082088;28;20462;-54
2022/11/30 09:07:42;;;;;;;7.77;6.00;;;7.00;99.90;;;6.92;69.17;95157.94;5079236;28;20456;-55
2022/11/30 09:10:10;;;;;;;7.97;5.10;;;7.00;99.90;;;6.94;68.82;95163.03;5081908;28;20549;-54
2022/11/30 09:12:38;;;;;;;4.07;3.73;;;7.00;99.90;;;6.95;68.12;95156.88;5078865;28;20941;-56
2022/11/30 09:15:07;;;;;;;3.43;3.10;;;7.00;99.90;;;6.94;67.89;95160.44;5078118;28;20544;-55
2022/11/30 09:17:34;;;;;;;2.63;2.37;;;7.00;99.90;;;6.92;67.89;95171.00;5081665;28;20504;-55
2022/11/30 09:20:01;;;;;;;3.20;2.00;;;7.00;99.90;;;6.90;67.11;95166.84;5081661;28;20513;-54
2022/11/30 09:22:30;;;;;;;6.03;3.10;;;7.00;99.90;;;6.86;65.26;95168.00;5079324;28;20450;-54
2022/11/30 09:24:57;;;;;;;6.00;3.33;;;7.00;99.90;;;6.80;64.97;95164.88;5078377;28;20466;-56
2022/11/30 09:27:29;;;;;;;3.67;3.37;;;6.90;99.90;;;6.75;65.25;95166.97;5081954;28;20472;-54
2022/11/30 09:29:57;;;;;;;2.33;2.10;;;6.90;99.90;;;6.69;64.75;95175.25;5077544;28;20582;-57
2022/11/30 09:32:24;;;;;;;4.93;2.00;;;6.80;99.90;;;6.64;63.73;95180.81;5080967;28;20442;-55
2022/11/30 09:34:51;;;;;;;4.80;3.00;;;6.70;99.90;;;6.59;64.19;95179.47;5077880;28;20477;-55
2022/11/30 09:37:18;;;;;;;2.20;2.00;;;6.70;99.80;;;6.57;65.30;95194.44;5081558;28;20996;-55
2022/11/30 09:39:47;;;;;;;1.67;1.57;;;6.60;99.90;;;6.58;64.78;95196.09;5078177;28;21076;-56
2022/11/30 09:42:49;;;;;;;1.87;1.30;;;6.70;99.90;;;6.55;64.33;95191.06;5078075;28;20881;-56
2022/11/30 09:45:19;;;;;;;2.10;1.93;;;6.60;99.90;;;6.55;64.10;95191.06;5081116;28;20484;-57
2022/11/30 09:48:09;;;;;;;3.60;1.90;;;6.70;99.90;;;6.55;63.72;95180.63;5073545;28;20482;-56
2022/11/30 09:50:39;;;;;;;3.37;3.07;;;6.70;99.80;;;6.53;64.68;95188.56;5077910;28;21064;-56
2022/11/30 09:53:11;;;;;;;3.10;2.53;;;6.60;99.90;;;6.50;64.49;95180.13;5080895;28;20472;-55
2022/11/30 09:55:41;;;;;;;5.53;2.93;;;6.60;99.90;;;6.51;64.10;95179.19;5071821;28;20467;-54
2022/11/30 09:58:17;;;;;;;4.73;4.00;;;6.60;99.90;;;6.51;64.36;95172.19;5077839;28;20485;-56
2022/11/30 10:00:44;;;;;;;4.90;3.30;;;6.60;99.90;;;6.50;65.20;95167.88;5077721;28;20475;-55
2022/11/30 10:03:12;;;;;;;2.50;2.00;;;6.60;99.90;;;6.51;64.22;95166.13;5084545;28;20441;-55
2022/11/30 10:05:45;;;;;;;2.60;2.37;;;6.60;99.90;;;6.50;64.04;95167.06;5078058;28;20478;-55
2022/11/30 10:08:38;;;;;;;3.83;2.50;;;6.60;99.90;;;6.48;64.20;95161.13;5080769;28;20482;-53
2022/11/30 10:11:35;;;;;;;3.00;1.87;;;6.60;99.90;;;6.45;64.38;95155.13;5078587;28;20796;-55
2022/11/30 10:14:20;;;;;;;4.50;2.17;;;6.50;99.90;;;6.39;63.77;95152.97;5075667;28;20943;-57
2022/11/30 10:16:51;;;;;;;2.30;1.90;;;6.50;99.50;;;6.35;64.29;95154.13;5075528;28;20454;-55
2022/11/30 10:19:28;;;;;;;3.23;1.73;;;6.40;99.70;;;6.30;64.22;95150.97;5081307;28;20501;-56
2022/11/30 10:22:03;;;;;;;7.40;2.33;;;6.40;99.90;;;6.28;64.61;95143.25;5078719;28;20995;-56
2022/11/30 10:24:38;;;;;;;4.43;2.90;;;6.40;99.90;;;6.33;65.23;95139.50;5081464;28;20476;-55
2022/11/30 10:27:18;;;;;;;3.37;2.93;;;6.40;99.90;;;6.38;65.02;95129.56;5078284;28;20453;-55
2022/11/30 10:29:45;;;;;;;3.40;2.87;;;6.40;99.90;;;6.41;65.41;95143.25;5078896;28;20560;-57
2022/11/30 10:32:18;;;;;;;13.47;2.50;;;6.50;99.90;;;6.48;65.07;95127.16;5080149;28;20547;-57
2022/11/30 10:34:45;;;;;;;6.90;3.33;;;6.60;99.90;;;6.52;64.71;95133.81;5077463;28;20475;-56
2022/11/30 10:37:15;;;;;;;5.83;2.80;;;6.60;99.90;;;6.58;65.05;95129.00;5079026;28;20958;-57
2022/11/30 10:39:46;;;;;;;3.90;2.90;;;6.70;99.90;;;6.66;65.25;95135.44;5077077;28;20474;-54
2022/11/30 10:42:18;;;;;;;4.53;3.27;;;6.70;99.90;;;6.67;64.60;95124.88;5074957;28;20962;-55